Time;durP1;ratioP1;P1;durP2;ratioP2;P2;SDS_P1;SDS_P2;PMS_P1;PMS_P2;Temp;Humidity;BMP_temperature;BMP_pressure;BME280_temperature;BME280_humidity;BME280_pressure;Samples;Min_cycle;Max_cycle;Signal;HPM_P1;HPM_P2
2023/06/24 00:01:48;;;;;;;18.70;13.90;;;17.30;99.90;;;;;;5053949;28;20198;-70
2023/06/24 00:04:15;;;;;;;20.13;14.83;;;17.30;99.90;;;;;;5057570;28;20209;-71
2023/06/24 00:06:40;;;;;;;17.63;14.60;;;17.30;99.90;;;;;;5058125;28;20221;-72
2023/06/24 00:09:07;;;;;;;19.10;16.77;;;17.30;99.90;;;;;;5059294;28;20567;-69
2023/06/24 00:11:33;;;;;;;17.40;15.43;;;17.20;99.90;;;;;;5060355;28;20205;-70
2023/06/24 00:13:58;;;;;;;18.00;15.37;;;17.20;99.90;;;;;;5050815;28;20206;-64
2023/06/24 00:16:27;;;;;;;21.57;17.70;;;17.20;99.90;;;;;;5049551;28;20297;-62
2023/06/24 00:18:55;;;;;;;23.43;18.23;;;17.20;99.90;;;;;;5047971;28;20253;-63
2023/06/24 00:21:20;;;;;;;26.53;20.93;;;17.20;99.90;;;;;;5049546;28;20229;-62
2023/06/24 00:23:49;;;;;;;23.37;20.17;;;17.20;99.90;;;;;;5055309;28;20673;-61
2023/06/24 00:26:14;;;;;;;23.80;21.03;;;17.20;99.90;;;;;;5059186;28;20241;-61
2023/06/24 00:28:40;;;;;;;28.57;20.30;;;17.20;99.90;;;;;;5059807;28;20491;-61
2023/06/24 00:31:05;;;;;;;22.93;20.33;;;17.20;99.90;;;;;;5057629;28;20206;-61
2023/06/24 00:33:35;;;;;;;26.73;21.03;;;17.30;99.90;;;;;;5059438;28;20202;-61
2023/06/24 00:36:01;;;;;;;25.83;21.47;;;17.20;99.90;;;;;;5059278;28;20504;-61
2023/06/24 00:38:29;;;;;;;25.23;20.60;;;17.20;99.90;;;;;;5059561;28;20210;-61
2023/06/24 00:40:54;;;;;;;22.53;20.17;;;17.20;99.90;;;;;;5057426;28;20259;-61
2023/06/24 00:43:20;;;;;;;21.77;19.47;;;17.30;99.90;;;;;;5059277;28;20567;-61
2023/06/24 00:45:48;;;;;;;22.70;20.27;;;17.20;99.90;;;;;;5059231;28;20210;-61
2023/06/24 00:48:14;;;;;;;23.43;19.73;;;17.10;99.90;;;;;;5058976;28;20891;-61
2023/06/24 00:50:42;;;;;;;21.33;19.13;;;17.20;99.90;;;;;;5059371;28;20198;-61
2023/06/24 00:53:08;;;;;;;20.97;18.80;;;17.10;99.90;;;;;;5059253;28;20281;-61
2023/06/24 00:55:33;;;;;;;20.83;18.63;;;17.10;99.90;;;;;;5058720;28;20581;-62
2023/06/24 00:58:01;;;;;;;21.57;19.37;;;17.10;99.90;;;;;;5059014;28;20220;-63
2023/06/24 01:00:27;;;;;;;20.10;17.77;;;17.10;99.90;;;;;;5058902;28;20684;-62
2023/06/24 01:02:52;;;;;;;23.43;18.17;;;17.10;99.90;;;;;;5061413;28;20240;-62
2023/06/24 01:05:23;;;;;;;22.37;19.23;;;17.00;99.90;;;;;;5057895;28;20295;-62
2023/06/24 01:07:54;;;;;;;20.63;18.40;;;17.00;99.90;;;;;;5056589;28;20193;-63
2023/06/24 01:10:20;;;;;;;20.77;18.60;;;17.00;99.90;;;;;;5056691;28;20201;-64
2023/06/24 01:12:45;;;;;;;20.00;18.00;;;17.10;99.90;;;;;;5058574;28;20581;-64
2023/06/24 01:15:11;;;;;;;18.63;16.83;;;17.00;99.90;;;;;;5059528;28;20198;-64
2023/06/24 01:17:49;;;;;;;19.90;17.87;;;17.00;99.90;;;;;;5060112;28;20223;-63
2023/06/24 01:20:33;;;;;;;16.97;15.37;;;17.10;99.90;;;;;;5053660;28;20194;-64
2023/06/24 01:23:34;;;;;;;17.87;16.10;;;17.00;99.90;;;;;;5059265;28;20650;-64
2023/06/24 01:26:21;;;;;;;16.53;14.73;;;16.90;99.90;;;;;;5056480;28;20233;-64
2023/06/24 01:29:01;;;;;;;17.90;16.00;;;16.90;99.90;;;;;;5058517;28;20205;-64
2023/06/24 01:31:46;;;;;;;17.50;15.67;;;17.00;99.90;;;;;;5058142;28;20312;-64
2023/06/24 01:34:34;;;;;;;22.70;16.83;;;16.90;99.90;;;;;;5058161;28;20215;-63
2023/06/24 01:37:17;;;;;;;17.67;15.97;;;17.00;99.90;;;;;;5056776;28;20287;-64
2023/06/24 01:39:55;;;;;;;19.60;16.53;;;16.90;99.90;;;;;;5049004;28;20306;-63
2023/06/24 01:42:21;;;;;;;21.10;17.80;;;16.90;99.90;;;;;;5044934;28;20284;-63
2023/06/24 01:44:49;;;;;;;18.00;16.10;;;16.90;99.90;;;;;;5048850;28;20269;-63
2023/06/24 01:47:23;;;;;;;21.00;16.80;;;16.80;99.90;;;;;;5049122;28;20218;-63
2023/06/24 01:49:52;;;;;;;16.30;14.70;;;16.80;99.90;;;;;;5047924;28;20347;-63
2023/06/24 01:52:20;;;;;;;16.97;15.43;;;16.70;99.90;;;;;;5047750;28;20285;-63
2023/06/24 01:54:49;;;;;;;17.60;15.83;;;16.80;99.90;;;;;;5047603;28;20200;-63
2023/06/24 01:57:16;;;;;;;16.40;14.70;;;16.80;99.90;;;;;;5045932;28;20245;-63
2023/06/24 01:59:44;;;;;;;18.50;16.60;;;16.80;99.90;;;;;;5048123;28;20268;-63
2023/06/24 02:02:12;;;;;;;18.10;14.27;;;16.80;99.90;;;;;;5048275;28;20211;-63
2023/06/24 02:04:38;;;;;;;17.83;15.97;;;16.80;99.90;;;;;;5048178;28;20209;-63
2023/06/24 02:07:05;;;;;;;22.70;13.63;;;16.80;99.90;;;;;;5055002;28;20236;-63
2023/06/24 02:09:33;;;;;;;16.63;14.00;;;16.60;99.90;;;;;;5048337;28;20688;-64
2023/06/24 02:12:01;;;;;;;14.57;13.07;;;16.50;99.90;;;;;;5057865;28;20205;-64
2023/06/24 02:14:28;;;;;;;15.23;12.87;;;16.40;99.90;;;;;;5058118;28;20190;-63
2023/06/24 02:16:57;;;;;;;14.40;12.70;;;16.30;99.90;;;;;;5055988;28;20431;-63
2023/06/24 02:19:25;;;;;;;15.53;13.40;;;16.10;99.90;;;;;;5057889;28;20305;-63
2023/06/24 02:21:52;;;;;;;14.47;13.07;;;16.10;99.90;;;;;;5057880;28;20216;-64
2023/06/24 02:24:19;;;;;;;14.47;13.07;;;16.10;99.90;;;;;;5057389;28;20764;-63
2023/06/24 02:26:46;;;;;;;15.20;13.60;;;16.10;99.90;;;;;;5058083;28;20300;-63
2023/06/24 02:29:13;;;;;;;14.47;12.67;;;16.00;99.90;;;;;;5055824;28;20572;-64
2023/06/24 02:31:39;;;;;;;13.20;11.90;;;15.90;99.90;;;;;;5053168;28;20202;-64
2023/06/24 02:34:05;;;;;;;16.57;12.97;;;15.90;99.90;;;;;;5051669;28;20297;-64
2023/06/24 02:36:30;;;;;;;16.47;13.37;;;15.90;99.90;;;;;;5056370;28;20281;-64
2023/06/24 02:38:56;;;;;;;15.43;12.13;;;15.80;99.90;;;;;;5056602;28;20267;-64
2023/06/24 02:41:21;;;;;;;18.60;12.47;;;15.80;99.90;;;;;;5057144;28;20572;-64
2023/06/24 02:43:47;;;;;;;13.20;11.53;;;15.80;99.90;;;;;;5057436;28;20260;-63
2023/06/24 02:46:15;;;;;;;13.50;12.10;;;15.70;99.90;;;;;;5057484;28;20225;-64
2023/06/24 02:48:42;;;;;;;14.30;12.80;;;15.70;99.90;;;;;;5057924;28;20275;-64
2023/06/24 02:51:09;;;;;;;14.17;12.77;;;15.70;99.90;;;;;;5055240;28;20222;-64
2023/06/24 02:53:37;;;;;;;15.03;10.70;;;15.60;99.90;;;;;;5056785;28;20718;-64
2023/06/24 02:56:04;;;;;;;15.73;12.87;;;15.60;99.90;;;;;;5057193;28;20206;-64
2023/06/24 02:58:31;;;;;;;12.47;11.37;;;15.50;99.90;;;;;;5056959;28;20220;-64
2023/06/24 03:01:06;;;;;;;14.57;12.00;;;15.50;99.90;;;;;;5055276;28;20214;-64
2023/06/24 03:03:32;;;;;;;15.30;13.77;;;15.40;99.90;;;;;;5056783;28;20205;-63
2023/06/24 03:05:59;;;;;;;14.67;12.90;;;15.40;99.90;;;;;;5056733;28;20246;-63
2023/06/24 03:08:26;;;;;;;16.03;12.87;;;15.40;99.90;;;;;;5056833;28;20279;-63
2023/06/24 03:10:56;;;;;;;14.00;12.50;;;15.40;99.90;;;;;;5054789;28;20190;-63
2023/06/24 03:13:21;;;;;;;15.13;12.77;;;15.30;99.90;;;;;;5056857;28;20285;-63
2023/06/24 03:15:47;;;;;;;24.17;13.27;;;15.30;99.90;;;;;;5056752;28;20760;-63
2023/06/24 03:18:12;;;;;;;14.70;12.90;;;15.30;99.90;;;;;;5047602;28;20591;-63
2023/06/24 03:20:38;;;;;;;16.20;13.53;;;15.30;99.90;;;;;;5046655;28;20280;-63
2023/06/24 03:23:06;;;;;;;22.13;12.50;;;15.20;99.90;;;;;;5045643;28;20202;-63
2023/06/24 03:25:32;;;;;;;14.90;13.17;;;15.20;99.90;;;;;;5048576;28;20271;-63
2023/06/24 03:27:58;;;;;;;14.17;12.47;;;15.20;99.90;;;;;;5044070;28;20198;-63
2023/06/24 03:30:23;;;;;;;14.77;12.87;;;15.30;99.90;;;;;;5046180;28;20605;-63
2023/06/24 03:32:49;;;;;;;13.83;12.27;;;15.30;99.90;;;;;;5044488;28;20190;-63
2023/06/24 03:35:15;;;;;;;13.33;11.80;;;15.20;99.90;;;;;;5047008;28;20585;-64
2023/06/24 03:37:40;;;;;;;13.90;12.60;;;15.20;99.90;;;;;;5046820;28;20195;-65
2023/06/24 03:40:07;;;;;;;17.00;12.70;;;15.20;99.90;;;;;;5046693;28;20272;-74
2023/06/24 03:42:33;;;;;;;16.53;13.50;;;15.20;99.90;;;;;;5047203;28;20205;-74
2023/06/24 03:44:58;;;;;;;15.70;12.23;;;15.20;99.90;;;;;;5046497;28;20201;-62
2023/06/24 03:47:24;;;;;;;15.20;12.20;;;15.10;99.90;;;;;;5045114;28;20267;-61
2023/06/24 03:49:49;;;;;;;15.83;13.43;;;15.10;99.90;;;;;;5045939;28;20194;-61
2023/06/24 03:52:16;;;;;;;15.23;11.43;;;15.10;99.90;;;;;;5049284;28;20202;-63
2023/06/24 03:54:41;;;;;;;13.77;12.33;;;15.20;99.90;;;;;;5044684;28;20571;-61
2023/06/24 03:57:08;;;;;;;13.40;11.17;;;15.30;99.90;;;;;;5044573;28;20213;-61
2023/06/24 03:59:34;;;;;;;14.83;12.30;;;15.40;99.90;;;;;;5043624;28;20218;-62
2023/06/24 04:02:00;;;;;;;12.20;11.03;;;15.40;99.90;;;;;;5046598;28;20966;-61
2023/06/24 04:04:26;;;;;;;15.13;11.53;;;15.30;99.90;;;;;;5046590;28;20206;-61
2023/06/24 04:06:51;;;;;;;14.43;12.10;;;15.40;99.90;;;;;;5046879;28;20898;-61
2023/06/24 04:09:17;;;;;;;14.10;11.70;;;15.40;99.90;;;;;;5046571;28;20281;-61
2023/06/24 04:11:42;;;;;;;16.67;12.47;;;15.30;99.90;;;;;;5045360;28;20194;-63
2023/06/24 04:14:09;;;;;;;12.00;10.90;;;15.10;99.90;;;;;;5055818;28;20243;-63
2023/06/24 04:16:35;;;;;;;13.37;10.90;;;15.30;99.90;;;;;;5055749;28;20676;-65
2023/06/24 04:19:01;;;;;;;14.30;12.63;;;15.30;99.90;;;;;;5056219;28;20356;-61
2023/06/24 04:21:26;;;;;;;13.80;11.33;;;15.40;99.90;;;;;;5056428;28;20208;-66
2023/06/24 04:23:52;;;;;;;12.60;11.30;;;15.40;99.90;;;;;;5056041;28;20198;-61
2023/06/24 04:26:17;;;;;;;14.03;12.23;;;15.30;99.90;;;;;;5053372;28;20216;-62
2023/06/24 04:28:46;;;;;;;14.03;12.20;;;15.30;99.90;;;;;;5053352;28;20214;-61
2023/06/24 04:31:11;;;;;;;16.30;11.83;;;15.30;99.90;;;;;;5056519;28;20202;-61
2023/06/24 04:33:37;;;;;;;16.47;11.43;;;15.30;99.90;;;;;;5053951;28;20203;-62
2023/06/24 04:36:03;;;;;;;12.53;11.23;;;15.30;99.90;;;;;;5054692;28;20688;-72
2023/06/24 04:38:28;;;;;;;15.37;13.10;;;15.40;99.90;;;;;;5053497;28;21218;-73
2023/06/24 04:40:54;;;;;;;14.50;11.23;;;15.50;99.90;;;;;;5055969;28;20202;-73
2023/06/24 04:43:19;;;;;;;13.47;12.07;;;15.30;99.90;;;;;;5050584;28;20198;-73
2023/06/24 04:45:45;;;;;;;13.83;11.83;;;15.40;99.90;;;;;;5053650;28;20214;-74
2023/06/24 04:48:10;;;;;;;16.90;13.33;;;15.30;99.90;;;;;;5055805;28;20198;-73
2023/06/24 04:50:36;;;;;;;12.87;11.57;;;15.10;99.90;;;;;;5056284;28;20226;-80
2023/06/24 04:53:04;;;;;;;15.03;12.53;;;15.10;99.90;;;;;;5060586;28;20186;-77
2023/06/24 04:55:32;;;;;;;19.60;12.13;;;15.20;99.90;;;;;;5059893;28;20780;-77
2023/06/24 04:57:58;;;;;;;11.40;10.20;;;15.30;99.90;;;;;;5054183;28;20205;-77
2023/06/24 05:00:24;;;;;;;15.13;11.70;;;15.20;99.90;;;;;;5063456;28;20225;-73
2023/06/24 05:02:50;;;;;;;13.53;11.63;;;15.30;99.90;;;;;;5054239;28;20186;-70
2023/06/24 05:05:15;;;;;;;15.60;11.57;;;15.30;99.90;;;;;;5047386;28;20683;-72
2023/06/24 05:07:41;;;;;;;13.77;12.30;;;15.30;99.90;;;;;;5049394;28;20194;-72
2023/06/24 05:10:07;;;;;;;17.63;12.20;;;15.50;99.90;;;;;;5050014;28;20194;-72
2023/06/24 05:12:32;;;;;;;14.60;11.47;;;15.50;99.90;;;;;;5047927;28;20190;-72
2023/06/24 05:14:58;;;;;;;13.50;12.13;;;15.50;99.90;;;;;;5048716;28;20667;-74
2023/06/24 05:17:23;;;;;;;16.10;13.00;;;15.50;99.90;;;;;;5055393;28;20815;-71
2023/06/24 05:19:49;;;;;;;13.80;12.17;;;15.60;99.90;;;;;;5059255;28;20209;-79
2023/06/24 05:22:14;;;;;;;13.83;12.30;;;15.60;99.90;;;;;;5058874;28;20209;-77
2023/06/24 05:24:41;;;;;;;12.90;11.00;;;15.60;99.90;;;;;;5048365;28;20194;-72
2023/06/24 05:27:07;;;;;;;14.50;11.23;;;15.60;99.90;;;;;;5055974;28;20222;-73
2023/06/24 05:29:33;;;;;;;13.20;11.90;;;15.60;99.90;;;;;;5049581;28;20199;-74
2023/06/24 05:31:59;;;;;;;12.60;11.37;;;15.80;99.90;;;;;;5058254;28;20584;-70
2023/06/24 05:34:25;;;;;;;12.10;10.83;;;15.90;99.90;;;;;;5049232;28;20206;-71
2023/06/24 05:36:50;;;;;;;12.90;11.57;;;15.90;99.90;;;;;;5049811;28;20207;-71
2023/06/24 05:39:17;;;;;;;13.70;12.20;;;15.80;99.90;;;;;;5046567;28;20225;-70
2023/06/24 05:41:43;;;;;;;13.03;11.83;;;15.70;99.90;;;;;;5048793;28;20571;-74
2023/06/24 05:44:10;;;;;;;14.30;11.53;;;15.70;99.90;;;;;;5047088;28;20704;-72
2023/06/24 05:46:36;;;;;;;18.07;11.33;;;15.60;99.90;;;;;;5047979;28;20218;-72
2023/06/24 05:49:01;;;;;;;13.57;12.17;;;15.70;99.90;;;;;;5046760;28;20201;-72
2023/06/24 05:51:27;;;;;;;17.03;12.57;;;15.70;99.90;;;;;;5058586;28;20591;-71
2023/06/24 05:53:52;;;;;;;12.80;11.50;;;15.60;99.90;;;;;;5061837;28;20233;-69
2023/06/24 05:56:19;;;;;;;13.43;12.13;;;15.70;99.90;;;;;;5061032;28;20635;-72
2023/06/24 05:58:44;;;;;;;12.40;11.23;;;15.80;99.90;;;;;;5058953;28;20226;-73
2023/06/24 06:01:13;;;;;;;16.07;11.90;;;16.00;99.90;;;;;;5058748;28;20191;-73
2023/06/24 06:03:39;;;;;;;13.50;11.67;;;16.20;99.90;;;;;;5062165;28;20396;-74
2023/06/24 06:06:05;;;;;;;12.77;11.53;;;16.30;99.90;;;;;;5061889;28;20218;-73
2023/06/24 06:08:30;;;;;;;16.70;11.30;;;16.40;99.90;;;;;;5060575;28;20218;-72
2023/06/24 06:11:00;;;;;;;13.47;12.13;;;16.40;99.90;;;;;;5056648;28;20193;-69
2023/06/24 06:13:25;;;;;;;11.80;10.63;;;16.50;99.90;;;;;;5063746;28;20675;-71
2023/06/24 06:15:51;;;;;;;13.33;11.73;;;16.50;99.90;;;;;;5064177;28;20200;-71
2023/06/24 06:18:16;;;;;;;13.47;11.63;;;16.40;99.90;;;;;;5052416;28;20813;-70
2023/06/24 06:20:42;;;;;;;12.07;10.03;;;16.40;99.90;;;;;;5048141;28;20213;-69
2023/06/24 06:23:07;;;;;;;12.13;11.03;;;16.50;99.90;;;;;;5047711;28;20624;-69
2023/06/24 06:25:33;;;;;;;11.10;9.97;;;16.60;99.90;;;;;;5055214;28;20210;-68
2023/06/24 06:27:59;;;;;;;11.70;10.53;;;16.70;99.90;;;;;;5058681;28;20731;-68
2023/06/24 06:30:24;;;;;;;14.07;10.87;;;16.70;99.90;;;;;;5055663;28;20198;-68
2023/06/24 06:32:49;;;;;;;11.97;10.70;;;16.70;99.90;;;;;;5060615;28;20218;-68
2023/06/24 06:35:15;;;;;;;11.73;9.70;;;16.70;99.90;;;;;;5058521;28;20210;-69
2023/06/24 06:37:41;;;;;;;11.73;10.40;;;16.80;99.90;;;;;;5059872;28;20190;-70
2023/06/24 06:40:07;;;;;;;10.80;9.60;;;16.80;99.90;;;;;;5060063;28;20537;-70
2023/06/24 06:42:32;;;;;;;11.23;10.03;;;16.80;99.90;;;;;;5060245;28;20197;-70
2023/06/24 06:44:58;;;;;;;12.07;10.50;;;16.80;99.90;;;;;;5063732;28;20198;-70
2023/06/24 06:47:23;;;;;;;11.93;8.80;;;16.90;99.90;;;;;;5061491;28;20210;-69
2023/06/24 06:49:49;;;;;;;9.43;8.60;;;16.90;99.90;;;;;;5058916;28;20231;-69
2023/06/24 06:52:15;;;;;;;14.73;9.27;;;17.00;99.90;;;;;;5056219;28;20198;-68
2023/06/24 06:54:41;;;;;;;9.67;8.67;;;17.00;99.90;;;;;;5056960;28;20235;-70
2023/06/24 06:57:06;;;;;;;10.10;9.13;;;17.10;99.90;;;;;;5056893;28;20671;-71
2023/06/24 06:59:32;;;;;;;11.30;9.90;;;17.20;99.90;;;;;;5064825;28;20265;-70
2023/06/24 07:01:58;;;;;;;9.17;8.03;;;17.20;99.90;;;;;;5061875;28;20209;-72
2023/06/24 07:04:23;;;;;;;9.77;8.60;;;17.30;99.90;;;;;;5065154;28;20206;-69
2023/06/24 07:06:49;;;;;;;10.50;8.17;;;17.40;99.90;;;;;;5064951;28;20767;-69
2023/06/24 07:09:15;;;;;;;9.07;8.03;;;17.50;99.90;;;;;;5065500;28;20195;-71
2023/06/24 07:11:41;;;;;;;7.93;7.13;;;17.50;99.90;;;;;;5064732;28;20196;-71
2023/06/24 07:14:06;;;;;;;9.70;8.70;;;17.60;99.90;;;;;;5060327;28;20197;-71
2023/06/24 07:16:32;;;;;;;10.80;7.83;;;17.60;99.90;;;;;;5061929;28;20204;-72
2023/06/24 07:18:58;;;;;;;10.47;8.67;;;17.80;99.90;;;;;;5062918;28;20198;-69
2023/06/24 07:21:23;;;;;;;8.57;7.73;;;17.80;99.90;;;;;;5062233;28;20255;-69
2023/06/24 07:23:48;;;;;;;9.07;7.73;;;17.90;99.90;;;;;;5062612;28;20691;-69
2023/06/24 07:26:14;;;;;;;7.67;7.00;;;17.80;99.90;;;;;;5063509;28;20213;-70
2023/06/24 07:28:39;;;;;;;7.30;6.70;;;17.90;99.90;;;;;;5059310;28;20556;-70
2023/06/24 07:31:05;;;;;;;8.47;7.53;;;17.90;99.90;;;;;;5061287;28;20551;-69
2023/06/24 07:33:30;;;;;;;7.27;6.57;;;17.90;99.90;;;;;;5063022;28;20612;-70
2023/06/24 07:35:56;;;;;;;6.90;6.23;;;18.00;99.90;;;;;;5058913;28;20258;-69
2023/06/24 07:38:22;;;;;;;11.23;7.07;;;18.00;99.90;;;;;;5058004;28;20284;-70
2023/06/24 07:40:48;;;;;;;8.20;5.90;;;18.00;99.90;;;;;;5057450;28;20686;-71
2023/06/24 07:43:13;;;;;;;8.20;6.40;;;18.10;99.90;;;;;;5056353;28;20201;-72
2023/06/24 07:45:39;;;;;;;9.77;7.53;;;18.20;99.90;;;;;;5054493;28;20228;-72
2023/06/24 07:48:05;;;;;;;7.97;7.17;;;18.30;99.90;;;;;;5063068;28;20198;-73
2023/06/24 07:50:31;;;;;;;7.47;6.73;;;18.30;99.90;;;;;;5057111;28;20229;-71
2023/06/24 07:52:57;;;;;;;5.90;5.40;;;18.50;99.90;;;;;;5046042;28;20203;-71
2023/06/24 07:55:22;;;;;;;8.97;6.70;;;18.60;99.90;;;;;;5043624;28;20661;-70
2023/06/24 07:57:48;;;;;;;6.70;6.10;;;18.80;99.90;;;;;;5046618;28;20226;-71
2023/06/24 08:00:15;;;;;;;6.70;6.10;;;18.80;99.90;;;;;;5046578;28;20669;-70
2023/06/24 08:02:41;;;;;;;7.07;6.37;;;18.80;99.90;;;;;;5045960;28;20198;-70
2023/06/24 08:05:07;;;;;;;6.47;5.80;;;18.90;99.90;;;;;;5046164;28;20198;-71
2023/06/24 08:07:33;;;;;;;7.57;6.30;;;19.00;99.90;;;;;;5046036;28;20232;-70
2023/06/24 08:09:58;;;;;;;6.73;6.00;;;19.10;99.90;;;;;;5044094;28;20949;-71
2023/06/24 08:12:24;;;;;;;9.97;6.53;;;18.90;99.90;;;;;;5048480;28;20249;-70
2023/06/24 08:14:49;;;;;;;5.97;5.37;;;18.90;99.90;;;;;;5050743;28;20624;-69
2023/06/24 08:17:15;;;;;;;5.90;5.40;;;18.90;99.90;;;;;;5045964;28;20248;-70
2023/06/24 08:19:40;;;;;;;9.83;6.17;;;18.80;99.90;;;;;;5045906;28;20214;-70
2023/06/24 08:22:06;;;;;;;6.03;5.43;;;18.80;99.90;;;;;;5045156;28;20273;-71
2023/06/24 08:24:32;;;;;;;7.93;6.03;;;18.90;99.90;;;;;;5045410;28;21013;-71
2023/06/24 08:26:57;;;;;;;7.00;6.30;;;18.90;99.90;;;;;;5050021;28;20291;-71
2023/06/24 08:29:22;;;;;;;6.60;6.00;;;18.70;99.90;;;;;;5049532;28;20195;-71
2023/06/24 08:31:48;;;;;;;7.37;6.30;;;18.60;99.90;;;;;;5049679;28;20657;-71
2023/06/24 08:34:14;;;;;;;7.03;6.40;;;18.80;99.90;;;;;;5049164;28;20596;-71
2023/06/24 08:36:39;;;;;;;9.60;6.10;;;19.00;99.90;;;;;;5048091;28;20208;-71
2023/06/24 08:39:05;;;;;;;6.37;5.77;;;19.10;99.90;;;;;;5051423;28;20711;-71
2023/06/24 08:41:30;;;;;;;6.40;5.83;;;19.10;99.90;;;;;;5058929;28;20201;-71
2023/06/24 08:43:56;;;;;;;6.67;5.97;;;18.90;99.90;;;;;;5057952;28;20348;-70
2023/06/24 08:46:24;;;;;;;6.60;5.83;;;18.90;99.90;;;;;;5058587;28;20214;-70
2023/06/24 08:48:59;;;;;;;6.43;5.83;;;19.10;99.90;;;;;;5057147;28;20194;-69
2023/06/24 08:51:29;;;;;;;5.93;5.30;;;19.20;99.90;;;;;;5058410;28;20225;-70
2023/06/24 08:53:55;;;;;;;15.43;5.70;;;19.20;99.90;;;;;;5056959;28;20234;-69
2023/06/24 08:56:20;;;;;;;5.63;5.13;;;19.20;99.90;;;;;;5058524;28;20198;-69
2023/06/24 08:58:46;;;;;;;5.93;5.50;;;19.10;99.90;;;;;;5057099;28;20229;-69
2023/06/24 09:01:12;;;;;;;6.17;5.67;;;19.20;99.90;;;;;;5058181;28;20290;-69
2023/06/24 09:03:38;;;;;;;6.47;5.87;;;19.10;99.90;;;;;;5057701;28;20285;-70
2023/06/24 09:06:03;;;;;;;5.27;4.77;;;19.20;99.90;;;;;;5058313;28;20388;-68
2023/06/24 09:08:29;;;;;;;6.10;5.60;;;19.30;99.90;;;;;;5058070;28;20209;-68
2023/06/24 09:10:55;;;;;;;6.47;5.83;;;19.40;99.90;;;;;;5057887;28;20201;-72
2023/06/24 09:13:22;;;;;;;5.80;5.17;;;19.40;99.90;;;;;;5056093;28;20289;-70
2023/06/24 09:15:48;;;;;;;5.13;4.63;;;19.40;99.90;;;;;;5061903;28;20228;-69
2023/06/24 09:18:16;;;;;;;6.47;5.73;;;19.40;99.90;;;;;;5058582;28;20296;-69
2023/06/24 09:20:44;;;;;;;6.53;5.37;;;19.50;99.90;;;;;;5056257;28;20685;-69
2023/06/24 09:23:10;;;;;;;5.93;4.87;;;19.50;99.90;;;;;;5053517;28;20233;-69
2023/06/24 09:25:35;;;;;;;4.93;4.40;;;19.60;99.90;;;;;;5058499;28;20288;-68
2023/06/24 09:28:02;;;;;;;5.33;4.93;;;19.60;99.90;;;;;;5050385;28;20219;-70
2023/06/24 09:30:28;;;;;;;5.80;3.93;;;19.70;99.90;;;;;;5048759;28;20243;-71
2023/06/24 09:32:54;;;;;;;4.77;4.27;;;19.80;99.90;;;;;;5047988;28;20257;-67
2023/06/24 09:35:24;;;;;;;4.93;4.43;;;19.80;99.90;;;;;;5051048;28;20346;-68
2023/06/24 09:37:51;;;;;;;4.87;4.47;;;19.80;99.90;;;;;;5045609;28;20207;-68
2023/06/24 09:40:17;;;;;;;5.40;4.80;;;19.90;99.90;;;;;;5055561;28;20225;-69
2023/06/24 09:42:56;;;;;;;4.83;4.27;;;19.80;99.90;;;;;;5065981;28;20229;-68
2023/06/24 09:45:27;;;;;;;4.37;3.97;;;19.80;99.90;;;;;;5050005;28;20202;-68
2023/06/24 09:48:00;;;;;;;3.73;3.43;;;19.90;99.90;;;;;;5058832;28;20198;-69
2023/06/24 09:50:26;;;;;;;4.90;4.47;;;20.10;99.90;;;;;;5056926;28;20198;-69
2023/06/24 09:52:54;;;;;;;6.10;3.80;;;20.10;99.90;;;;;;5067290;28;20197;-68
2023/06/24 09:55:19;;;;;;;5.60;4.03;;;20.30;99.90;;;;;;5066324;28;20194;-83
2023/06/24 09:57:48;;;;;;;6.13;3.97;;;20.40;99.90;;;;;;5061349;28;21001;-70
2023/06/24 10:00:16;;;;;;;4.43;4.00;;;20.40;99.90;;;;;;5052780;28;20672;-70
2023/06/24 10:02:42;;;;;;;4.83;4.43;;;20.40;99.90;;;;;;5058037;28;20205;-70
2023/06/24 10:05:08;;;;;;;4.30;3.90;;;20.50;99.90;;;;;;5057030;28;20279;-71
2023/06/24 10:07:39;;;;;;;4.23;3.87;;;20.50;99.90;;;;;;5053199;28;20658;-71
2023/06/24 10:10:05;;;;;;;4.80;4.30;;;20.50;99.90;;;;;;5042328;28;20211;-71
2023/06/24 10:12:31;;;;;;;4.97;3.83;;;20.70;99.90;;;;;;5043389;28;20207;-71
2023/06/24 10:14:58;;;;;;;3.50;3.27;;;20.70;99.90;;;;;;5049604;28;20190;-71
2023/06/24 10:17:23;;;;;;;4.80;3.87;;;20.70;99.90;;;;;;5044986;28;20297;-71
2023/06/24 10:19:56;;;;;;;7.27;5.07;;;20.70;99.90;;;;;;5043214;28;20530;-71
2023/06/24 10:22:25;;;;;;;4.00;3.70;;;20.70;99.90;;;;;;5046241;28;20260;-71
2023/06/24 10:24:52;;;;;;;4.83;4.13;;;20.60;99.90;;;;;;5046093;28;20231;-71
2023/06/24 10:27:22;;;;;;;4.90;4.10;;;20.70;99.90;;;;;;5046564;28;20224;-71
2023/06/24 10:29:49;;;;;;;5.47;4.83;;;20.90;99.90;;;;;;5049471;28;20200;-71
2023/06/24 10:32:15;;;;;;;7.03;4.33;;;21.10;99.90;;;;;;5046188;28;20210;-71
2023/06/24 10:34:43;;;;;;;6.03;3.93;;;21.20;99.90;;;;;;5044247;28;20208;-71
2023/06/24 10:37:13;;;;;;;5.90;4.60;;;21.30;99.90;;;;;;5047622;28;20318;-71
2023/06/24 10:39:54;;;;;;;4.87;4.47;;;21.40;99.90;;;;;;5046281;28;20252;-71
2023/06/24 10:42:46;;;;;;;8.03;4.97;;;21.30;99.90;;;;;;5045801;28;20205;-71
2023/06/24 10:45:12;;;;;;;5.50;4.30;;;21.30;99.90;;;;;;5045204;28;20213;-71
2023/06/24 10:47:38;;;;;;;4.20;3.53;;;21.40;99.90;;;;;;5047540;28;20271;-71
2023/06/24 10:50:05;;;;;;;4.93;4.53;;;21.50;99.90;;;;;;5045467;28;20255;-71
2023/06/24 10:52:31;;;;;;;5.20;3.93;;;21.60;99.90;;;;;;5046367;28;20589;-71
2023/06/24 10:54:58;;;;;;;4.97;4.07;;;21.60;99.90;;;;;;5046902;28;20225;-71
2023/06/24 10:57:27;;;;;;;5.03;3.33;;;21.80;99.90;;;;;;5046083;28;20200;-71
2023/06/24 10:59:54;;;;;;;4.40;4.00;;;21.80;99.90;;;;;;5046030;28;20211;-71
2023/06/24 11:02:27;;;;;;;5.80;4.43;;;21.70;99.90;;;;;;5041766;28;20218;-71
2023/06/24 11:04:55;;;;;;;4.43;4.03;;;21.70;99.90;;;;;;5045915;28;20282;-71
2023/06/24 11:07:22;;;;;;;5.27;4.57;;;21.90;99.90;;;;;;5046226;28;20224;-72
2023/06/24 11:09:55;;;;;;;4.33;3.93;;;22.00;99.90;;;;;;5044241;28;20259;-72
2023/06/24 11:12:29;;;;;;;4.77;4.27;;;22.30;99.90;;;;;;5045539;28;20206;-72
2023/06/24 11:14:56;;;;;;;3.83;3.40;;;22.40;99.90;;;;;;5054858;28;20213;-73
2023/06/24 11:17:22;;;;;;;4.17;3.87;;;22.50;99.90;;;;;;5053207;28;20277;-73
2023/06/24 11:19:48;;;;;;;5.17;4.27;;;22.60;99.90;;;;;;5055545;28;20193;-72
2023/06/24 11:22:13;;;;;;;5.33;4.10;;;22.70;99.90;;;;;;5055211;28;20210;-72
2023/06/24 11:24:39;;;;;;;4.93;4.10;;;23.00;99.90;;;;;;5055440;28;20763;-72
2023/06/24 11:27:05;;;;;;;5.07;4.30;;;23.20;99.90;;;;;;5055725;28;20220;-73
2023/06/24 11:29:32;;;;;;;6.10;4.27;;;23.60;99.90;;;;;;5055687;28;20198;-73
2023/06/24 11:31:57;;;;;;;4.47;4.07;;;23.70;99.90;;;;;;5054031;28;20255;-72
2023/06/24 11:34:23;;;;;;;4.37;4.07;;;24.10;99.20;;;;;;5054923;28;20210;-73
2023/06/24 11:36:49;;;;;;;4.33;3.93;;;24.10;98.30;;;;;;5055670;28;20237;-72
2023/06/24 11:39:24;;;;;;;4.23;3.87;;;24.20;97.60;;;;;;5055842;28;20587;-72
2023/06/24 11:41:51;;;;;;;6.23;3.70;;;24.30;96.80;;;;;;5045459;28;20652;-72
2023/06/24 11:44:20;;;;;;;5.03;3.97;;;24.40;96.50;;;;;;5056330;28;20203;-72
2023/06/24 11:46:46;;;;;;;7.47;4.13;;;24.70;96.30;;;;;;5044213;28;20277;-74
2023/06/24 11:49:12;;;;;;;4.82;4.20;;;24.80;95.70;;;;;;5064442;28;20627;-75
2023/06/24 11:51:48;;;;;;;4.15;3.83;;;24.70;95.90;;;;;;5063579;28;20657;-74
2023/06/24 11:54:16;;;;;;;4.32;3.45;;;24.50;94.60;;;;;;5047813;28;20313;-73
2023/06/24 11:56:43;;;;;;;4.63;3.87;;;24.30;93.90;;;;;;5047063;28;20194;-74
2023/06/24 11:59:27;;;;;;;3.58;3.30;;;24.70;96.10;;;;;;5064113;28;20205;-75
2023/06/24 12:01:59;;;;;;;4.38;3.97;;;24.80;95.80;;;;;;5065143;28;20670;-73
2023/06/24 12:04:32;;;;;;;3.97;3.67;;;24.50;95.00;;;;;;5052966;28;21897;-74
2023/06/24 12:06:58;;;;;;;6.60;4.05;;;24.40;95.00;;;;;;5056832;28;20271;-74
2023/06/24 12:09:24;;;;;;;4.20;3.83;;;24.80;96.30;;;;;;5053047;28;20265;-74
2023/06/24 12:11:51;;;;;;;4.82;4.32;;;24.90;95.00;;;;;;5063415;28;20665;-73
2023/06/24 12:14:16;;;;;;;5.07;3.50;;;25.70;95.20;;;;;;5060278;28;20200;-74
2023/06/24 12:16:41;;;;;;;3.78;3.50;;;25.80;93.10;;;;;;5062484;28;20267;-75
2023/06/24 12:19:07;;;;;;;4.63;4.20;;;25.90;91.70;;;;;;5058563;28;20203;-76
2023/06/24 12:21:34;;;;;;;6.78;3.78;;;25.50;92.10;;;;;;5051192;28;20909;-73
2023/06/24 12:23:59;;;;;;;4.28;3.72;;;25.30;93.60;;;;;;5061244;28;20208;-73
2023/06/24 12:26:25;;;;;;;4.05;3.75;;;25.80;92.10;;;;;;5056265;28;20206;-74
2023/06/24 12:32:13;;;;;;;4.35;3.95;;;26.00;91.00;;;;;;5052980;28;20214;-73
2023/06/24 12:34:38;;;;;;;4.43;3.45;;;26.00;91.20;;;;;;5045059;28;20197;-73
2023/06/24 12:37:04;;;;;;;3.85;3.55;;;26.00;92.00;;;;;;5054274;28;20213;-74
2023/06/24 12:39:29;;;;;;;4.15;3.78;;;26.50;87.20;;;;;;5054792;28;20247;-74